Time;durP1;ratioP1;P1;durP2;ratioP2;P2;SDS_P1;SDS_P2;PMS_P1;PMS_P2;Temp;Humidity;BMP_temperature;BMP_pressure;BME280_temperature;BME280_humidity;BME280_pressure;Samples;Min_cycle;Max_cycle;Signal;HPM_P1;HPM_P2
2023/12/02 00:02:12;;;;;;;0.52;0.52;;;;;;;-1.79;97.87;101278.00;5078764;27;100414;-28
2023/12/02 00:04:37;;;;;;;1.50;1.23;;;;;;;-1.81;98.17;101282.44;5097028;27;97814;-28
2023/12/02 00:07:03;;;;;;;0.50;0.50;;;;;;;-1.74;98.29;101284.19;5098328;27;96552;-27
2023/12/02 00:09:28;;;;;;;1.13;1.05;;;;;;;-1.72;98.24;101282.41;5098094;27;96797;-28
2023/12/02 00:11:53;;;;;;;0.22;0.22;;;;;;;-1.81;98.45;101270.06;5097913;27;98417;-27
2023/12/02 00:14:19;;;;;;;0.30;0.30;;;;;;;-1.77;98.52;101277.13;5098128;27;97279;-27
2023/12/02 00:16:44;;;;;;;0.75;0.75;;;;;;;-1.77;98.47;101263.84;5097836;27;96553;-27
2023/12/02 00:19:09;;;;;;;3.17;1.55;;;;;;;-1.75;98.96;101262.06;5098151;27;96595;-27
2023/12/02 00:21:35;;;;;;;0.25;0.25;;;;;;;-1.70;99.13;101262.03;5097652;27;97373;-30
2023/12/02 00:24:01;;;;;;;2.22;1.33;;;;;;;-1.63;98.86;101265.56;5079245;27;97282;-29
2023/12/02 00:26:27;;;;;;;2.00;1.42;;;;;;;-1.61;98.96;101272.63;5078800;27;96523;-27
2023/12/02 00:28:52;;;;;;;3.03;1.35;;;;;;;-1.64;98.96;101261.16;5097735;27;96861;-27
2023/12/02 00:31:18;;;;;;;1.73;0.95;;;;;;;-1.62;99.03;101268.22;5097365;27;98817;-27
2023/12/02 00:33:43;;;;;;;1.23;0.85;;;;;;;-1.62;99.45;101275.28;5097603;27;97742;-29
2023/12/02 00:36:09;;;;;;;1.75;1.45;;;;;;;-1.52;99.50;101285.00;5098111;27;96443;-28
2023/12/02 00:38:34;;;;;;;0.93;0.70;;;;;;;-1.51;99.32;101286.75;5078929;27;97209;-27
2023/12/02 00:40:59;;;;;;;1.05;1.00;;;;;;;-1.51;98.99;101277.00;5097496;27;97896;-28
2023/12/02 00:43:25;;;;;;;1.60;1.13;;;;;;;-1.52;98.81;101269.94;5097938;27;97340;-27
2023/12/02 00:45:50;;;;;;;4.22;1.27;;;;;;;-1.47;99.01;101267.25;5097879;27;96492;-27
2023/12/02 00:48:16;;;;;;;1.23;1.13;;;;;;;-1.53;99.18;101265.50;5097436;27;96810;-27
2023/12/02 00:50:41;;;;;;;1.08;0.98;;;;;;;-1.47;99.08;101266.38;5096670;27;98475;-27
2023/12/02 00:53:06;;;;;;;1.13;1.05;;;;;;;-1.53;99.03;101248.69;5096430;27;99340;-27
2023/12/02 00:55:32;;;;;;;1.25;0.85;;;;;;;-1.52;99.22;101261.09;5079163;27;96653;-27
2023/12/02 00:57:57;;;;;;;1.42;1.13;;;;;;;-1.49;99.49;101271.69;5097588;27;96825;-28
2023/12/02 01:00:23;;;;;;;0.40;0.40;;;;;;;-1.42;99.07;101281.38;5097186;27;97971;-27
2023/12/02 01:02:48;;;;;;;1.90;1.00;;;;;;;-1.44;99.48;101299.09;5078343;27;100950;-28
2023/12/02 01:05:14;;;;;;;1.52;1.42;;;;;;;-1.47;99.55;101272.56;5097446;27;96714;-28
2023/12/02 01:07:39;;;;;;;1.63;1.27;;;;;;;-1.53;99.22;101262.84;5078828;27;96873;-28
2023/12/02 01:10:05;;;;;;;0.43;0.43;;;;;;;-1.45;99.23;101276.09;5096686;27;99100;-27
2023/12/02 01:12:31;;;;;;;4.20;2.42;;;;;;;-1.43;99.06;101263.69;5096668;27;98711;-27
2023/12/02 01:14:56;;;;;;;0.73;0.73;;;;;;;-1.38;99.09;101275.19;5096568;27;96716;-27
2023/12/02 01:17:21;;;;;;;1.08;0.88;;;;;;;-1.41;98.78;101271.63;5097161;27;96818;-27
2023/12/02 01:19:47;;;;;;;0.80;0.70;;;;;;;-1.39;98.93;101270.72;5096567;27;97951;-27
2023/12/02 01:22:12;;;;;;;3.97;2.17;;;;;;;-1.38;98.83;101276.91;5096530;27;97450;-27
2023/12/02 01:24:38;;;;;;;1.48;1.33;;;;;;;-1.38;98.75;101285.81;5096994;27;96529;-28
2023/12/02 01:27:03;;;;;;;0.52;0.43;;;;;;;-1.42;98.74;101277.84;5096783;27;96826;-28
2023/12/02 01:29:29;;;;;;;0.65;0.60;;;;;;;-1.38;99.11;101283.16;5077929;27;100801;-27
2023/12/02 01:31:54;;;;;;;0.93;0.57;;;;;;;-1.41;98.82;101285.78;5097088;27;97297;-27
2023/12/02 01:34:19;;;;;;;2.83;1.92;;;;;;;-1.50;98.94;101270.81;5096611;27;96646;-28
2023/12/02 01:36:45;;;;;;;1.48;1.20;;;;;;;-1.47;99.05;101283.19;5096625;27;96777;-27
2023/12/02 01:39:12;;;;;;;1.27;1.13;;;;;;;-1.46;99.24;101289.38;5077167;27;101167;-27
2023/12/02 01:41:38;;;;;;;0.98;0.65;;;;;;;-1.48;99.40;101293.81;5077808;27;100997;-27
2023/12/02 01:44:04;;;;;;;0.43;0.43;;;;;;;-1.45;99.41;101302.66;5078184;27;96638;-27
2023/12/02 01:46:29;;;;;;;0.82;0.70;;;;;;;-1.37;99.47;101307.94;5096706;27;96730;-27
2023/12/02 01:48:58;;;;;;;2.05;1.45;;;;;;;-1.38;99.38;101306.16;5096069;27;98963;-27
2023/12/02 01:51:25;;;;;;;1.08;1.02;;;;;;;-1.37;99.19;101303.50;5060280;27;101195;-28
2023/12/02 01:53:50;;;;;;;0.40;0.40;;;;;;;-1.42;99.35;101299.09;5077937;27;96689;-27
2023/12/02 01:56:16;;;;;;;3.70;1.15;;;;;;;-1.42;99.24;101297.34;5097008;27;96837;-27
2023/12/02 01:58:42;;;;;;;0.80;0.75;;;;;;;-1.45;98.62;101297.34;5096231;27;98438;-27
2023/12/02 02:01:08;;;;;;;2.95;1.35;;;;;;;-1.44;98.89;101300.88;5077398;27;99414;-27
2023/12/02 02:03:33;;;;;;;6.03;2.60;;;;;;;-1.41;98.90;101299.09;5095932;27;96576;-27
2023/12/02 02:05:59;;;;;;;2.25;0.98;;;;;;;-1.36;99.04;101307.03;5096008;27;96786;-27
2023/12/02 02:08:25;;;;;;;0.45;0.45;;;;;;;-1.41;98.82;101298.22;5077364;27;100802;-27
2023/12/02 02:10:58;;;;;;;1.38;1.20;;;;;;;-1.40;99.23;101302.66;5096040;27;97794;-27
2023/12/02 02:13:24;;;;;;;2.35;1.75;;;;;;;-1.38;99.07;101300.84;5077610;27;97349;-27
2023/12/02 02:15:49;;;;;;;2.42;0.88;;;;;;;-1.39;98.99;101292.00;5096646;27;96745;-27
2023/12/02 02:18:14;;;;;;;1.27;1.17;;;;;;;-1.42;99.67;101280.50;5095895;27;97382;-32
2023/12/02 02:20:40;;;;;;;0.60;0.60;;;;;;;-1.35;99.16;101299.06;5077149;27;101137;-27
2023/12/02 02:23:05;;;;;;;3.05;1.85;;;;;;;-1.51;98.90;101270.81;5096349;27;96490;-27
2023/12/02 02:25:30;;;;;;;2.40;1.92;;;;;;;-1.41;99.13;101282.25;5096487;27;96854;-27
2023/12/02 02:27:56;;;;;;;1.33;1.23;;;;;;;-1.41;99.20;101285.78;5096768;27;97935;-27
2023/12/02 02:30:23;;;;;;;0.82;0.60;;;;;;;-1.45;99.02;101285.81;5099496;27;97285;-27
2023/12/02 02:32:49;;;;;;;1.67;1.50;;;;;;;-1.47;98.72;101288.50;5081145;27;96593;-26
2023/12/02 02:35:14;;;;;;;0.10;0.10;;;;;;;-1.42;99.08;101291.13;5099775;27;97175;-28
2023/12/02 02:37:39;;;;;;;2.83;2.45;;;;;;;-1.44;98.61;101293.78;5099145;27;99436;-27
2023/12/02 02:40:06;;;;;;;1.92;1.70;;;;;;;-1.49;99.01;101284.97;5099404;27;97909;-27
2023/12/02 02:42:31;;;;;;;0.77;0.77;;;;;;;-1.44;99.12;101288.47;5081011;27;96612;-27
2023/12/02 02:44:56;;;;;;;2.15;0.60;;;;;;;-1.45;98.84;101289.38;5100160;27;96717;-27
2023/12/02 02:47:22;;;;;;;1.10;1.05;;;;;;;-1.43;99.08;101300.88;5099268;27;97966;-27
2023/12/02 02:49:48;;;;;;;1.15;1.05;;;;;;;-1.43;99.18;101295.56;5098460;27;99276;-27
2023/12/02 02:52:13;;;;;;;3.05;1.52;;;;;;;-1.51;99.15;101286.75;5098241;27;96727;-28
2023/12/02 02:54:38;;;;;;;0.28;0.25;;;;;;;-1.50;99.52;101297.38;5099516;27;96728;-27
2023/12/02 02:57:05;;;;;;;4.03;1.90;;;;;;;-1.56;98.86;101297.38;5099270;27;97581;-27
2023/12/02 02:59:31;;;;;;;0.70;0.68;;;;;;;-1.58;99.01;101296.50;5080260;27;100870;-28
2023/12/02 03:01:56;;;;;;;1.05;1.05;;;;;;;-1.58;99.15;101301.81;5099226;27;96603;-27
2023/12/02 03:04:22;;;;;;;1.70;1.08;;;;;;;-1.60;99.32;101289.44;5098957;27;96891;-27
2023/12/02 03:06:47;;;;;;;3.78;2.50;;;;;;;-1.62;99.21;101293.88;5080329;27;100835;-27
2023/12/02 03:09:14;;;;;;;3.80;2.90;;;;;;;-1.63;99.68;101286.81;5099226;27;97764;-29
2023/12/02 03:11:39;;;;;;;1.55;1.45;;;;;;;-1.59;99.35;101296.53;5099128;27;96683;-27
2023/12/02 03:14:05;;;;;;;1.15;1.02;;;;;;;-1.64;99.59;101285.94;5080554;27;96789;-27
2023/12/02 03:16:31;;;;;;;3.95;1.85;;;;;;;-1.60;99.50;101286.78;5079651;27;101060;-27
2023/12/02 03:18:57;;;;;;;2.25;2.03;;;;;;;-1.66;99.45;101281.53;5098220;27;99095;-27
2023/12/02 03:21:22;;;;;;;1.27;1.17;;;;;;;-1.70;99.36;101285.94;5098916;27;96617;-27
2023/12/02 03:23:49;;;;;;;1.00;0.90;;;;;;;-1.67;99.48;101288.56;5098957;27;96543;-29
2023/12/02 03:26:14;;;;;;;2.08;0.85;;;;;;;-1.70;99.34;101288.59;5098544;27;99494;-27
2023/12/02 03:28:40;;;;;;;3.67;1.52;;;;;;;-1.73;99.42;101292.16;5098409;27;99325;-27
2023/12/02 03:31:06;;;;;;;1.33;1.20;;;;;;;-1.74;99.37;101301.03;5098933;27;96583;-27
2023/12/02 03:33:31;;;;;;;3.70;0.93;;;;;;;-1.81;99.27;101291.31;5099311;27;96796;-27
2023/12/02 03:35:56;;;;;;;1.50;1.15;;;;;;;-1.78;99.27;101301.91;5098527;27;97402;-27
2023/12/02 03:38:21;;;;;;;1.35;1.25;;;;;;;-1.84;99.29;101288.66;5097612;27;99356;-27
2023/12/02 03:40:47;;;;;;;3.97;2.13;;;;;;;-1.85;99.24;101286.91;5097260;27;96584;-27
2023/12/02 03:43:12;;;;;;;0.57;0.57;;;;;;;-1.81;99.19;101293.97;5098948;27;96726;-28
2023/12/02 03:45:38;;;;;;;1.08;0.98;;;;;;;-1.80;98.85;101297.50;5098471;27;97886;-27
2023/12/02 03:48:03;;;;;;;0.82;0.82;;;;;;;-1.90;98.49;101282.50;5097999;27;99116;-28
2023/12/02 03:50:29;;;;;;;2.42;2.15;;;;;;;-1.89;98.88;101282.47;5098080;27;96645;-28
2023/12/02 03:52:54;;;;;;;1.23;0.68;;;;;;;-1.93;98.88;101292.22;5098107;27;96798;-27
2023/12/02 03:55:19;;;;;;;1.33;0.93;;;;;;;-1.91;98.80;101297.50;5098297;27;97305;-27
2023/12/02 03:57:45;;;;;;;2.60;1.77;;;;;;;-1.90;98.45;101301.09;5098304;27;99843;-27
2023/12/02 04:00:13;;;;;;;0.52;0.52;;;;;;;-1.92;98.81;101307.25;5098120;27;96610;-27
2023/12/02 04:02:39;;;;;;;0.80;0.80;;;;;;;-1.89;99.16;101316.09;5079335;27;96639;-28
2023/12/02 04:05:09;;;;;;;1.38;1.02;;;;;;;-1.92;99.33;101317.00;5078834;27;99189;-27
2023/12/02 04:07:35;;;;;;;1.77;1.15;;;;;;;-1.94;99.11;101316.13;5062237;27;100880;-27
2023/12/02 04:10:02;;;;;;;2.25;1.48;;;;;;;-1.98;99.37;101311.69;5079728;27;96582;-28
2023/12/02 04:12:28;;;;;;;1.15;1.10;;;;;;;-2.00;98.77;101308.16;5079510;27;96901;-27
2023/12/02 04:14:53;;;;;;;6.45;2.05;;;;;;;-1.95;98.72;101320.56;5079105;27;100864;-26
2023/12/02 04:17:19;;;;;;;0.95;0.95;;;;;;;-1.97;98.87;101332.94;5098026;27;97323;-27
2023/12/02 04:19:44;;;;;;;1.95;1.23;;;;;;;-1.99;98.91;101320.56;5097697;27;96545;-27
2023/12/02 04:22:09;;;;;;;1.55;1.20;;;;;;;-2.00;98.63;101319.69;5098855;27;96853;-28
2023/12/02 04:24:35;;;;;;;4.93;0.93;;;;;;;-1.94;98.36;101334.69;5097819;27;97905;-28
2023/12/02 04:27:00;;;;;;;2.22;1.85;;;;;;;-2.04;98.70;101320.56;5097406;27;98736;-28
2023/12/02 04:29:26;;;;;;;5.75;1.77;;;;;;;-1.95;98.49;101339.13;5079224;27;96570;-27
2023/12/02 04:31:51;;;;;;;0.82;0.82;;;;;;;-1.95;98.33;101335.59;5079106;27;96834;-28
2023/12/02 04:34:16;;;;;;;2.33;0.75;;;;;;;-1.98;98.42;101339.16;5097617;27;99523;-27
2023/12/02 04:36:43;;;;;;;1.00;0.43;;;;;;;-2.02;98.52;101328.53;5097554;27;97771;-28
2023/12/02 04:39:11;;;;;;;2.47;2.05;;;;;;;-2.01;98.82;101340.91;5062100;27;96604;-27
2023/12/02 04:41:37;;;;;;;1.27;1.17;;;;;;;-2.01;98.99;101335.59;5078933;27;96965;-27
2023/12/02 04:44:02;;;;;;;3.85;0.95;;;;;;;-2.02;99.05;101340.03;5078572;27;101300;-27
2023/12/02 04:46:28;;;;;;;3.28;0.75;;;;;;;-2.01;99.07;101339.13;5097463;27;97326;-27
2023/12/02 04:48:53;;;;;;;1.50;1.40;;;;;;;-2.10;99.39;101317.03;5097574;27;96632;-28
2023/12/02 04:51:18;;;;;;;2.35;1.60;;;;;;;-2.07;99.26;101322.31;5096162;27;96858;-28
2023/12/02 04:53:44;;;;;;;1.55;0.90;;;;;;;-2.13;99.08;101318.81;5096759;27;97966;-28
2023/12/02 04:56:10;;;;;;;3.72;1.35;;;;;;;-2.04;98.84;101338.28;5097000;27;99457;-27
2023/12/02 04:58:35;;;;;;;2.05;1.25;;;;;;;-2.07;98.88;101341.81;5097493;27;96653;-28
2023/12/02 05:01:00;;;;;;;1.35;1.17;;;;;;;-2.04;99.04;101348.88;5097230;27;96845;-28
2023/12/02 05:03:25;;;;;;;1.40;1.15;;;;;;;-2.06;98.78;101348.00;5078239;27;100743;-27
2023/12/02 05:05:51;;;;;;;0.85;0.77;;;;;;;-2.07;98.85;101349.78;5097047;27;97377;-29
2023/12/02 05:08:17;;;;;;;1.80;1.40;;;;;;;-2.10;99.20;101351.53;5097118;27;96726;-27
2023/12/02 05:10:42;;;;;;;1.92;1.58;;;;;;;-2.10;99.07;101349.75;5097372;27;96513;-27
2023/12/02 05:13:07;;;;;;;0.70;0.70;;;;;;;-2.07;99.22;101356.81;5097083;27;97410;-29
2023/12/02 05:15:33;;;;;;;3.38;2.33;;;;;;;-2.11;99.29;101357.75;5096865;27;97264;-27
2023/12/02 05:17:58;;;;;;;0.88;0.88;;;;;;;-2.06;99.10;101361.28;5096769;27;96549;-27
2023/12/02 05:20:23;;;;;;;1.60;1.27;;;;;;;-2.08;98.81;101361.25;5096832;27;96844;-27
2023/12/02 05:22:49;;;;;;;0.55;0.47;;;;;;;-2.10;98.80;101357.72;5096854;27;97860;-27
2023/12/02 05:25:15;;;;;;;1.45;1.30;;;;;;;-2.13;98.86;101348.00;5096741;27;97793;-27
2023/12/02 05:27:41;;;;;;;1.80;1.55;;;;;;;-2.11;98.99;101365.69;5078373;27;96613;-27
2023/12/02 05:30:07;;;;;;;0.30;0.30;;;;;;;-2.12;98.92;101356.88;5096698;27;96777;-28
2023/12/02 05:32:32;;;;;;;4.78;1.95;;;;;;;-2.20;98.62;101343.59;5077762;27;101167;-28
2023/12/02 05:34:58;;;;;;;2.55;1.60;;;;;;;-2.11;98.67;101365.69;5096688;27;99020;-27
2023/12/02 05:37:23;;;;;;;1.02;0.93;;;;;;;-2.16;98.77;101361.28;5096803;27;96437;-27
2023/12/02 05:39:49;;;;;;;0.45;0.45;;;;;;;-2.14;98.84;101367.47;5096847;27;96920;-27
2023/12/02 05:42:14;;;;;;;1.42;1.10;;;;;;;-2.13;99.15;101373.66;5095981;27;97913;-27
2023/12/02 05:44:42;;;;;;;2.20;0.85;;;;;;;-2.16;99.23;101363.06;5096273;27;99235;-29
2023/12/02 05:47:08;;;;;;;0.65;0.65;;;;;;;-2.15;99.41;101371.00;5096576;27;96691;-27
2023/12/02 05:49:33;;;;;;;0.32;0.32;;;;;;;-2.14;99.17;101374.56;5096640;27;96730;-28
2023/12/02 05:51:58;;;;;;;0.57;0.57;;;;;;;-2.19;98.92;101366.59;5095709;27;97873;-27
2023/12/02 05:54:24;;;;;;;2.17;1.00;;;;;;;-2.13;99.10;101385.16;5096203;27;97925;-27
2023/12/02 05:56:52;;;;;;;1.23;1.13;;;;;;;-2.14;98.91;101390.47;5097014;27;96612;-27
2023/12/02 05:59:19;;;;;;;1.65;1.55;;;;;;;-2.13;98.69;101389.56;5096460;27;96813;-27
2023/12/02 06:01:44;;;;;;;2.03;1.02;;;;;;;-2.18;99.04;101384.28;5076909;27;100890;-27
2023/12/02 06:04:09;;;;;;;2.30;2.08;;;;;;;-2.19;99.19;101385.16;5095716;27;99231;-27
2023/12/02 06:06:35;;;;;;;4.07;2.15;;;;;;;-2.15;99.08;101396.66;5096011;27;96519;-28
2023/12/02 06:09:00;;;;;;;1.65;1.50;;;;;;;-2.17;99.17;101390.44;5096179;27;96953;-27
2023/12/02 06:11:25;;;;;;;1.50;1.40;;;;;;;-2.20;99.49;101391.34;5096146;27;97882;-27
2023/12/02 06:13:51;;;;;;;0.70;0.70;;;;;;;-2.21;99.24;101384.28;5095479;27;98678;-27
2023/12/02 06:16:16;;;;;;;2.15;0.82;;;;;;;-2.19;99.29;101395.78;5096283;27;96480;-27
2023/12/02 06:18:41;;;;;;;2.90;1.88;;;;;;;-2.16;98.95;101398.44;5096015;27;96814;-27
2023/12/02 06:21:07;;;;;;;1.55;1.45;;;;;;;-2.20;98.91;101395.78;5095759;27;97788;-27
2023/12/02 06:23:32;;;;;;;0.43;0.40;;;;;;;-2.18;99.08;101399.31;5096037;27;99110;-27
2023/12/02 06:25:59;;;;;;;1.55;1.02;;;;;;;-2.21;98.79;101394.03;5095878;27;96505;-28
2023/12/02 06:28:24;;;;;;;2.25;2.05;;;;;;;-2.17;98.96;101404.63;5077235;27;96879;-27
2023/12/02 06:30:50;;;;;;;0.65;0.65;;;;;;;-2.17;99.36;101406.38;5094989;27;98808;-27
2023/12/02 06:33:15;;;;;;;0.90;0.85;;;;;;;-2.18;99.36;101408.16;5095680;27;98035;-27
2023/12/02 06:35:40;;;;;;;1.27;0.77;;;;;;;-2.11;99.36;101416.13;5077716;27;96611;-28
2023/12/02 06:38:06;;;;;;;1.73;1.63;;;;;;;-2.14;99.41;101417.88;5096130;27;96812;-27
2023/12/02 06:40:31;;;;;;;3.45;2.28;;;;;;;-2.16;99.75;101417.00;5077273;27;98668;-27
2023/12/02 06:42:56;;;;;;;1.48;1.38;;;;;;;-2.17;99.66;101420.56;5095195;27;99196;-27
2023/12/02 06:45:22;;;;;;;1.60;1.50;;;;;;;-2.16;99.60;101427.63;5096023;27;96455;-27
2023/12/02 06:47:47;;;;;;;1.10;0.82;;;;;;;-2.09;99.96;101432.94;5096390;27;96882;-27
2023/12/02 06:50:12;;;;;;;2.38;1.45;;;;;;;-2.06;99.72;101440.88;5095025;27;98939;-27
2023/12/02 06:52:38;;;;;;;1.67;0.95;;;;;;;-2.16;100.00;101427.63;5094864;27;97813;-28
2023/12/02 06:55:04;;;;;;;2.13;0.75;;;;;;;-2.10;100.00;101445.28;5076557;27;96598;-27
2023/12/02 06:57:29;;;;;;;1.30;1.10;;;;;;;-2.08;100.00;101446.19;5077100;27;97027;-27
2023/12/02 06:59:54;;;;;;;1.50;1.13;;;;;;;-2.10;99.70;101445.28;5095384;27;98145;-27
2023/12/02 07:02:20;;;;;;;2.25;1.55;;;;;;;-2.07;100.00;101457.69;5095489;27;97329;-27
2023/12/02 07:04:48;;;;;;;1.63;1.52;;;;;;;-2.09;99.91;101456.81;5076948;27;96621;-27
2023/12/02 07:07:13;;;;;;;1.35;1.25;;;;;;;-2.10;100.00;101450.59;5095419;27;96782;-27
2023/12/02 07:09:38;;;;;;;1.58;1.48;;;;;;;-2.08;100.00;101458.56;5095439;27;97471;-28
2023/12/02 07:12:04;;;;;;;1.08;0.85;;;;;;;-2.11;100.00;101448.84;5095696;27;97796;-27
2023/12/02 07:14:30;;;;;;;2.08;1.33;;;;;;;-2.07;100.00;101465.63;5097539;27;96527;-27
2023/12/02 07:16:55;;;;;;;2.58;1.30;;;;;;;-2.08;100.00;101453.28;5099471;27;96778;-27
2023/12/02 07:19:20;;;;;;;1.38;1.27;;;;;;;-2.07;100.00;101466.56;5079772;27;97910;-27
2023/12/02 07:21:46;;;;;;;2.22;1.75;;;;;;;-2.05;100.00;101475.41;5098578;27;97250;-27
2023/12/02 07:24:11;;;;;;;1.73;1.17;;;;;;;-2.08;100.00;101478.03;5098862;27;96537;-27
2023/12/02 07:26:36;;;;;;;2.90;1.45;;;;;;;-2.07;100.00;101468.28;5080432;27;96835;-27
2023/12/02 07:29:02;;;;;;;1.08;1.05;;;;;;;-2.04;100.00;101484.25;5098350;27;97944;-27
2023/12/02 07:31:27;;;;;;;3.13;1.90;;;;;;;-2.05;100.00;101471.84;5098527;27;97548;-27
2023/12/02 07:33:52;;;;;;;2.53;1.88;;;;;;;-2.01;100.00;101469.19;5098907;27;96656;-27
2023/12/02 07:36:18;;;;;;;2.00;1.38;;;;;;;-2.02;100.00;101470.09;5099386;27;96775;-28
2023/12/02 07:38:43;;;;;;;1.00;0.88;;;;;;;-1.99;100.00;101479.81;5098492;27;97649;-27
2023/12/02 07:41:09;;;;;;;5.57;3.90;;;;;;;-2.04;100.00;101460.34;5098843;27;97301;-27
2023/12/02 07:43:34;;;;;;;1.38;0.82;;;;;;;-2.01;100.00;101470.97;5079143;27;97224;-27
2023/12/02 07:46:00;;;;;;;0.68;0.65;;;;;;;-1.96;100.00;101471.84;5098590;27;96834;-27
2023/12/02 07:48:25;;;;;;;2.40;1.08;;;;;;;-1.99;100.00;101479.81;5098388;27;97489;-27
2023/12/02 07:50:50;;;;;;;2.40;2.10;;;;;;;-1.95;100.00;101486.91;5098245;27;97314;-27
2023/12/02 07:53:16;;;;;;;1.65;1.33;;;;;;;-1.99;100.00;101478.03;5098029;27;96824;-28
2023/12/02 07:55:41;;;;;;;1.27;1.17;;;;;;;-1.98;100.00;101481.56;5098299;27;96884;-27
2023/12/02 07:58:06;;;;;;;0.65;0.63;;;;;;;-1.94;100.00;101489.53;5079437;27;97978;-27
2023/12/02 08:00:32;;;;;;;0.73;0.73;;;;;;;-1.93;100.00;101504.59;5098380;27;97782;-27
2023/12/02 08:02:57;;;;;;;1.95;1.50;;;;;;;-1.90;100.00;101508.16;5098527;27;96665;-27
2023/12/02 08:05:22;;;;;;;2.78;1.38;;;;;;;-1.87;100.00;101503.69;5098572;27;96760;-28
2023/12/02 08:07:48;;;;;;;1.98;1.30;;;;;;;-1.89;100.00;101504.59;5097380;27;97409;-28
2023/12/02 08:10:13;;;;;;;1.85;1.27;;;;;;;-1.84;100.00;101510.78;5097802;27;99132;-27
2023/12/02 08:12:39;;;;;;;2.00;1.80;;;;;;;-1.86;100.00;101502.84;5098137;27;96677;-27
2023/12/02 08:15:07;;;;;;;1.33;1.23;;;;;;;-1.82;100.00;101506.34;5098694;27;96788;-28
2023/12/02 08:17:33;;;;;;;1.38;1.27;;;;;;;-1.83;100.00;101516.09;5097846;27;99399;-28
2023/12/02 08:19:59;;;;;;;1.65;1.42;;;;;;;-1.86;100.00;101507.25;5078789;27;100969;-29
2023/12/02 08:22:24;;;;;;;1.00;0.98;;;;;;;-1.78;100.00;101516.09;5097942;27;96584;-27
2023/12/02 08:24:51;;;;;;;2.50;1.05;;;;;;;-1.78;100.00;101521.41;5098004;27;96774;-27
2023/12/02 08:27:17;;;;;;;1.40;1.05;;;;;;;-1.77;100.00;101528.47;5097197;27;99570;-27
2023/12/02 08:29:42;;;;;;;2.78;1.63;;;;;;;-1.76;100.00;101519.66;5097420;27;99789;-27
2023/12/02 08:32:08;;;;;;;0.88;0.88;;;;;;;-1.71;100.00;101532.03;5078836;27;96623;-27
2023/12/02 08:34:33;;;;;;;0.98;0.60;;;;;;;-1.68;100.00;101530.25;5097867;27;96777;-27
2023/12/02 08:36:58;;;;;;;1.00;0.93;;;;;;;-1.64;100.00;101540.00;5097418;27;98728;-27
2023/12/02 08:39:24;;;;;;;1.98;1.80;;;;;;;-1.63;100.00;101540.00;5097114;27;99185;-27
2023/12/02 08:41:50;;;;;;;1.38;1.25;;;;;;;-1.64;100.00;101540.88;5097528;27;97547;-27
2023/12/02 08:44:15;;;;;;;2.08;0.90;;;;;;;-1.57;100.00;101545.31;5097913;27;96786;-27
2023/12/02 08:46:40;;;;;;;2.15;0.93;;;;;;;-1.54;100.00;101545.31;5078618;27;98049;-27
2023/12/02 08:49:05;;;;;;;1.60;1.05;;;;;;;-1.61;100.00;101529.38;5097537;27;97328;-27
2023/12/02 08:51:31;;;;;;;1.17;1.02;;;;;;;-1.54;100.00;101529.38;5075447;27;96689;-27
2023/12/02 08:54:00;;;;;;;1.83;1.70;;;;;;;-1.53;100.00;101539.09;5077162;27;96562;-27
2023/12/02 08:56:26;;;;;;;0.85;0.45;;;;;;;-1.53;100.00;101540.88;5075813;27;97304;-27
2023/12/02 08:58:52;;;;;;;1.77;1.67;;;;;;;-1.47;100.00;101537.34;5076515;27;97886;-28
2023/12/02 09:01:17;;;;;;;1.83;1.67;;;;;;;-1.47;100.00;101542.66;5075416;27;96645;-27
2023/12/02 09:03:43;;;;;;;3.67;2.92;;;;;;;-1.47;100.00;101546.19;5076882;27;96794;-27
2023/12/02 09:06:09;;;;;;;0.52;0.43;;;;;;;-1.36;100.00;101557.69;5076703;27;98916;-28
2023/12/02 09:08:34;;;;;;;0.82;0.80;;;;;;;-1.37;100.00;101553.25;5074879;27;102244;-26
2023/12/02 09:11:00;;;;;;;0.90;0.88;;;;;;;-1.32;100.00;101556.78;5076299;27;96673;-27
2023/12/02 09:13:43;;;;;;;0.85;0.85;;;;;;;-1.20;100.00;101568.28;5077088;27;96806;-27
2023/12/02 09:16:29;;;;;;;1.52;1.42;;;;;;;-1.10;100.00;101570.03;5076225;27;99500;-27
2023/12/02 09:18:55;;;;;;;1.23;1.10;;;;;;;-1.02;100.00;101578.91;5074489;27;100747;-27
2023/12/02 09:21:21;;;;;;;4.75;1.52;;;;;;;-0.92;100.00;101572.66;5075532;27;96651;-27
2023/12/02 09:23:49;;;;;;;3.60;1.65;;;;;;;-0.84;100.00;101577.97;5076208;27;96831;-27
2023/12/02 09:26:34;;;;;;;2.97;1.38;;;;;;;-0.71;100.00;101582.38;5074654;27;100254;-26
2023/12/02 09:28:59;;;;;;;0.40;0.40;;;;;;;-0.59;100.00;101578.78;5074789;27;98997;-27
2023/12/02 09:31:26;;;;;;;0.98;0.65;;;;;;;-0.56;100.00;101576.09;5076222;27;96611;-28
2023/12/02 09:33:57;;;;;;;1.63;1.48;;;;;;;-0.49;100.00;101572.50;5074601;27;96866;-27
2023/12/02 09:36:33;;;;;;;1.70;1.43;;;;;;;-0.41;100.00;101576.91;5074559;27;101441;-27
2023/12/02 09:39:22;;;;;;;1.52;1.33;;;;;;;-0.39;100.00;101580.47;5074728;27;100859;-27
2023/12/02 09:41:51;;;;;;;9.60;1.92;;;;;;;-0.38;100.00;101579.56;5064670;27;96567;-27
2023/12/02 09:44:26;;;;;;;0.55;0.55;;;;;;;-0.32;100.00;101582.19;5075777;27;96742;-27
2023/12/02 09:47:04;;;;;;;5.57;3.15;;;;;;;-0.30;100.00;101577.75;5075362;27;98062;-27
2023/12/02 09:49:57;;;;;;;1.17;1.02;;;;;;;-0.25;100.00;101579.50;5073929;27;100760;-28
2023/12/02 09:52:50;;;;;;;1.27;1.17;;;;;;;-0.17;100.00;101602.53;5074006;27;96875;-27
2023/12/02 09:55:21;;;;;;;1.90;0.95;;;;;;;-0.14;100.00;101587.44;5074606;27;96690;-27
2023/12/02 09:58:07;;;;;;;12.80;1.70;;;;;;;-0.09;100.00;101590.97;5074223;27;99168;-27
2023/12/02 10:00:43;;;;;;;1.92;1.48;;;;;;;-0.09;100.00;101584.75;5074209;27;100766;-28
2023/12/02 10:03:37;;;;;;;1.40;1.20;;;;;;;-0.07;100.00;101588.25;5075922;27;96716;-27
2023/12/02 10:06:31;;;;;;;2.67;1.73;;;;;;;-0.03;100.00;101582.91;5076343;27;96893;-27
2023/12/02 10:09:17;;;;;;;0.70;0.68;;;;;;;0.00;100.00;101590.03;5074135;27;100928;-27
2023/12/02 10:11:48;;;;;;;1.10;1.00;;;;;;;-0.01;100.00;101602.44;5075469;27;99199;-28
2023/12/02 10:14:16;;;;;;;1.27;1.17;;;;;;;-0.06;100.00;101598.91;5073817;27;96722;-27
2023/12/02 10:16:43;;;;;;;3.38;1.92;;;;;;;-0.02;100.00;101590.03;5074234;27;96934;-27
2023/12/02 10:19:36;;;;;;;1.92;1.10;;;;;;;0.07;100.00;101601.50;5074987;27;99488;-27
2023/12/02 10:22:03;;;;;;;0.73;0.68;;;;;;;0.04;100.00;101586.44;5074931;27;99565;-27
2023/12/02 10:24:40;;;;;;;2.75;1.60;;;;;;;0.13;100.00;101594.38;5075564;27;96531;-27
2023/12/02 10:27:12;;;;;;;2.15;1.45;;;;;;;0.20;100.00;101593.44;5075757;27;96569;-27
2023/12/02 10:29:57;;;;;;;1.65;1.48;;;;;;;0.22;100.00;101589.88;5075577;27;97366;-27
2023/12/02 10:32:32;;;;;;;0.82;0.82;;;;;;;0.33;100.00;101610.19;5074289;27;101122;-27
2023/12/02 10:35:04;;;;;;;3.58;2.67;;;;;;;0.28;100.00;101590.69;5074058;27;96535;-27
2023/12/02 10:37:37;;;;;;;1.63;1.42;;;;;;;0.31;100.00;101598.69;5075560;27;96721;-27
2023/12/02 10:40:07;;;;;;;3.95;1.70;;;;;;;0.40;100.00;101611.03;5073055;27;101410;-27
2023/12/02 10:42:53;;;;;;;0.70;0.70;;;;;;;0.39;100.00;101599.50;5073490;27;101793;-28
2023/12/02 10:45:19;;;;;;;0.47;0.45;;;;;;;0.34;100.00;101590.66;5075350;27;96662;-27
2023/12/02 10:47:47;;;;;;;2.28;1.80;;;;;;;0.44;100.00;101601.25;5074003;27;97068;-27
2023/12/02 10:50:16;;;;;;;7.13;2.08;;;;;;;0.47;100.00;101596.78;5077900;27;97976;-27
2023/12/02 10:52:56;;;;;;;1.45;1.10;;;;;;;0.45;100.00;101589.69;5076680;27;100833;-27
2023/12/02 10:55:22;;;;;;;3.47;1.73;;;;;;;0.44;100.00;101588.81;5077408;27;96585;-28
2023/12/02 10:57:48;;;;;;;4.68;2.55;;;;;;;0.46;100.00;101586.16;5077739;27;96889;-27
2023/12/02 11:00:16;;;;;;;4.18;1.63;;;;;;;0.54;100.00;101594.97;5078567;27;97452;-27
2023/12/02 11:02:57;;;;;;;2.30;1.98;;;;;;;0.54;100.00;101595.84;5078492;27;97264;-27
2023/12/02 11:05:28;;;;;;;2.03;1.40;;;;;;;0.57;100.00;101597.59;5076938;27;96531;-28
2023/12/02 11:07:59;;;;;;;1.00;1.00;;;;;;;0.56;100.00;101585.16;5078679;27;96656;-27
2023/12/02 11:10:43;;;;;;;3.90;1.23;;;;;;;0.65;100.00;101584.22;5077023;27;98815;-27
2023/12/02 11:13:15;;;;;;;0.43;0.43;;;;;;;0.75;100.00;101580.56;5078388;27;97845;-27
2023/12/02 11:16:00;;;;;;;3.13;1.85;;;;;;;0.85;100.00;101583.13;5077101;27;96507;-27
2023/12/02 11:18:56;;;;;;;1.80;0.52;;;;;;;0.88;100.00;101581.31;5077104;27;96733;-27
2023/12/02 11:22:08;;;;;;;2.03;1.83;;;;;;;1.01;100.00;101582.97;5076562;27;100715;-27
2023/12/02 11:24:55;;;;;;;2.35;1.23;;;;;;;1.10;100.00;101582.88;5051461;27;101526;-27